Time;durP1;ratioP1;P1;durP2;ratioP2;P2;SDS_P1;SDS_P2;PMS_P1;PMS_P2;Temp;Humidity;BMP_temperature;BMP_pressure;BME280_temperature;BME280_humidity;BME280_pressure;Samples;Min_cycle;Max_cycle;Signal;HPM_P1;HPM_P2
2020/12/09 00:00:11;;;;;;;66.53;40.17;;;;;;;-0.43;88.70;98600.67;124837;1098;65159;-81
2020/12/09 00:02:55;;;;;;;60.33;38.13;;;;;;;-0.41;89.37;98602.34;124913;1098;65539;-81
2020/12/09 00:05:23;;;;;;;65.13;39.40;;;;;;;-0.41;89.17;98599.73;125323;1100;65146;-81
2020/12/09 00:07:49;;;;;;;72.87;41.03;;;;;;;-0.42;89.11;98599.77;124888;1099;65139;-81
2020/12/09 00:10:16;;;;;;;73.57;43.10;;;;;;;-0.46;89.10;98610.33;125243;1098;65172;-82
2020/12/09 00:12:42;;;;;;;77.80;44.27;;;;;;;-0.47;88.89;98603.39;125208;1099;65370;-82
2020/12/09 00:15:10;;;;;;;70.62;42.38;;;;;;;-0.46;88.77;98615.56;124893;1100;65158;-81
2020/12/09 00:17:36;;;;;;;71.00;40.67;;;;;;;-0.44;89.40;98605.06;124838;1100;65246;-82
2020/12/09 00:20:05;;;;;;;65.40;38.27;;;;;;;-0.41;88.88;98617.20;125343;1099;65152;-80
2020/12/09 00:22:33;;;;;;;64.03;40.00;;;;;;;-0.40;88.85;98621.53;124946;1100;65208;-81
2020/12/09 00:25:01;;;;;;;67.67;40.13;;;;;;;-0.36;89.60;98625.78;124805;1098;65300;-81
2020/12/09 00:27:27;;;;;;;67.33;40.40;;;;;;;-0.38;89.01;98630.20;124912;1100;65250;-80
2020/12/09 00:29:54;;;;;;;67.90;38.10;;;;;;;-0.41;89.30;98627.67;124883;1099;65221;-80
2020/12/09 00:32:20;;;;;;;59.15;35.35;;;;;;;-0.43;89.49;98626.85;124870;1100;65127;-80
2020/12/09 00:34:47;;;;;;;61.07;36.47;;;;;;;-0.44;89.00;98623.39;124843;1100;65274;-80
2020/12/09 00:37:13;;;;;;;63.93;38.57;;;;;;;-0.42;89.39;98625.94;124782;1100;65246;-80
2020/12/09 00:39:39;;;;;;;64.27;37.77;;;;;;;-0.39;88.97;98624.11;124890;1098;65251;-80
2020/12/09 00:42:06;;;;;;;58.25;36.25;;;;;;;-0.38;88.95;98622.34;124897;1100;65152;-80
2020/12/09 00:44:32;;;;;;;63.87;37.93;;;;;;;-0.38;89.05;98619.73;124855;1098;65165;-80
2020/12/09 00:47:00;;;;;;;63.35;37.75;;;;;;;-0.42;89.16;98624.20;124861;1100;65139;-80
2020/12/09 00:49:26;;;;;;;60.97;37.37;;;;;;;-0.47;89.03;98628.71;125299;1098;65149;-80
2020/12/09 00:51:53;;;;;;;62.95;37.25;;;;;;;-0.49;89.10;98613.03;125250;1098;65198;-80
2020/12/09 00:54:19;;;;;;;61.07;35.73;;;;;;;-0.49;89.75;98622.66;124820;1100;65130;-80
2020/12/09 00:56:46;;;;;;;65.40;38.73;;;;;;;-0.50;89.51;98624.42;124864;1100;65246;-80
2020/12/09 00:59:12;;;;;;;63.63;35.77;;;;;;;-0.47;89.62;98623.48;125296;1098;65108;-80
2020/12/09 01:01:39;;;;;;;65.37;38.13;;;;;;;-0.45;89.78;98622.53;124832;1098;65518;-81
2020/12/09 01:04:06;;;;;;;62.60;35.70;;;;;;;-0.39;89.32;98620.64;125172;1098;65593;-81
2020/12/09 01:06:34;;;;;;;62.57;36.00;;;;;;;-0.41;89.51;98620.67;125324;1098;65137;-81
2020/12/09 01:09:05;;;;;;;69.20;38.07;;;;;;;-0.43;89.52;98632.94;125272;1098;65108;-81
2020/12/09 01:11:31;;;;;;;65.63;38.93;;;;;;;-0.45;89.84;98626.89;125322;1098;65588;-81
2020/12/09 01:13:58;;;;;;;62.27;36.93;;;;;;;-0.47;90.07;98631.33;124893;1098;65357;-81
2020/12/09 01:16:25;;;;;;;63.33;39.20;;;;;;;-0.47;89.39;98626.09;124881;1100;65176;-81
2020/12/09 01:18:51;;;;;;;66.23;38.23;;;;;;;-0.46;89.59;98628.66;124884;1100;65133;-81
2020/12/09 01:21:27;;;;;;;60.03;34.30;;;;;;;-0.43;89.98;98630.33;124845;1099;65155;-81
2020/12/09 01:23:53;;;;;;;60.75;37.65;;;;;;;-0.44;89.46;98626.00;124837;1100;65083;-81
2020/12/09 01:26:20;;;;;;;66.33;40.43;;;;;;;-0.42;90.01;98631.17;125175;1098;65313;-81
2020/12/09 01:28:46;;;;;;;62.80;36.10;;;;;;;-0.43;89.87;98624.23;124893;1100;65179;-81
2020/12/09 01:31:13;;;;;;;58.37;36.00;;;;;;;-0.45;89.97;98622.53;124893;1099;65239;-81
2020/12/09 01:33:39;;;;;;;61.40;36.90;;;;;;;-0.45;89.32;98621.65;125324;1099;65153;-81
2020/12/09 01:36:05;;;;;;;58.35;36.15;;;;;;;-0.44;89.94;98628.62;125264;1098;65176;-81
2020/12/09 01:38:32;;;;;;;56.73;34.33;;;;;;;-0.44;89.89;98628.62;125236;1098;65277;-81
2020/12/09 01:40:58;;;;;;;58.20;34.67;;;;;;;-0.45;89.76;98622.53;124889;1098;65179;-81
2020/12/09 01:43:25;;;;;;;57.60;35.47;;;;;;;-0.44;89.95;98615.53;124865;1098;65266;-80
2020/12/09 01:45:51;;;;;;;59.07;37.03;;;;;;;-0.46;89.82;98612.95;124864;1099;65275;-81
2020/12/09 01:48:18;;;;;;;51.53;32.95;;;;;;;-0.47;89.83;98602.54;125330;1098;65188;-81
2020/12/09 01:50:44;;;;;;;55.20;30.87;;;;;;;-0.51;89.84;98598.28;124849;1100;65204;-80
2020/12/09 01:53:11;;;;;;;56.25;35.80;;;;;;;-0.55;89.97;98597.52;124878;1100;65252;-81
2020/12/09 01:55:37;;;;;;;58.97;36.03;;;;;;;-0.53;89.96;98592.22;124863;1100;65202;-81
2020/12/09 01:58:04;;;;;;;52.10;32.00;;;;;;;-0.56;90.30;98585.31;125225;1098;65211;-80
2020/12/09 02:00:35;;;;;;;56.50;34.93;;;;;;;-0.56;90.00;98590.55;125122;1098;65181;-81
2020/12/09 02:03:03;;;;;;;59.00;35.70;;;;;;;-0.57;89.44;98595.84;125259;1098;65150;-81
2020/12/09 02:05:30;;;;;;;55.87;33.57;;;;;;;-0.60;89.80;98594.17;124890;1099;65147;-81
2020/12/09 02:07:56;;;;;;;49.47;30.83;;;;;;;-0.65;90.19;98588.20;125299;1098;65607;-81
2020/12/09 02:10:23;;;;;;;56.13;34.70;;;;;;;-0.69;89.93;98602.27;125250;1098;65083;-81
2020/12/09 02:12:49;;;;;;;49.83;29.63;;;;;;;-0.70;89.86;98595.33;124887;1100;65285;-81
2020/12/09 02:15:16;;;;;;;56.13;33.33;;;;;;;-0.72;89.86;98591.89;125218;1098;65291;-81
2020/12/09 02:17:42;;;;;;;49.50;31.10;;;;;;;-0.70;89.96;98584.86;124873;1098;65182;-81
2020/12/09 02:20:09;;;;;;;48.10;32.00;;;;;;;-0.70;89.92;98583.09;125295;1098;65112;-81
2020/12/09 02:22:36;;;;;;;53.60;33.70;;;;;;;-0.70;90.15;98598.80;124851;1098;65264;-81
2020/12/09 02:25:03;;;;;;;56.47;35.60;;;;;;;-0.70;90.00;98592.71;124915;1100;65144;-81
2020/12/09 02:27:30;;;;;;;61.37;36.53;;;;;;;-0.67;90.12;98597.85;124831;1100;66727;-81
2020/12/09 02:29:56;;;;;;;56.50;34.35;;;;;;;-0.64;89.30;98589.91;124901;1100;65578;-81
2020/12/09 02:32:23;;;;;;;55.60;33.00;;;;;;;-0.61;89.58;98589.82;124887;1100;65562;-82
2020/12/09 02:34:49;;;;;;;56.97;33.60;;;;;;;-0.58;89.86;98586.26;124872;1100;65032;-82
2020/12/09 02:37:16;;;;;;;53.25;35.45;;;;;;;-0.56;89.84;98592.31;124851;1098;65147;-80
2020/12/09 02:39:42;;;;;;;58.67;36.63;;;;;;;-0.55;89.75;98596.67;124902;1100;65198;-80
2020/12/09 02:42:09;;;;;;;56.90;36.33;;;;;;;-0.55;89.41;98594.05;124901;1098;65216;-80
2020/12/09 02:44:35;;;;;;;51.73;32.70;;;;;;;-0.55;89.19;98599.28;124874;1100;65147;-80
2020/12/09 02:47:01;;;;;;;51.55;32.20;;;;;;;-0.57;89.14;98593.23;125289;1098;65150;-80
2020/12/09 02:49:28;;;;;;;50.10;31.35;;;;;;;-0.57;89.86;98588.84;124865;1100;65179;-80
2020/12/09 02:51:55;;;;;;;48.27;29.73;;;;;;;-0.57;88.99;98580.99;125241;1098;65172;-82
2020/12/09 02:54:21;;;;;;;55.95;33.00;;;;;;;-0.57;89.04;98591.47;125209;1098;65217;-82
2020/12/09 02:56:48;;;;;;;53.40;32.13;;;;;;;-0.58;88.92;98592.38;125224;1098;65223;-82
2020/12/09 02:59:15;;;;;;;49.30;30.50;;;;;;;-0.59;89.49;98592.41;124898;1100;65230;-82
2020/12/09 03:01:42;;;;;;;44.97;29.47;;;;;;;-0.60;89.03;98591.55;125292;1098;65239;-79
2020/12/09 03:04:08;;;;;;;46.57;30.70;;;;;;;-0.62;89.12;98592.50;125299;1098;65205;-80
2020/12/09 03:06:35;;;;;;;41.53;27.17;;;;;;;-0.70;89.10;98596.18;124890;1099;65136;-80
2020/12/09 03:09:03;;;;;;;44.33;26.87;;;;;;;-0.73;88.92;98595.42;124937;1100;65154;-79
2020/12/09 03:11:30;;;;;;;48.10;29.90;;;;;;;-0.79;89.45;98591.22;124854;1100;65175;-80
2020/12/09 03:13:56;;;;;;;49.30;31.55;;;;;;;-0.82;89.39;98593.89;124846;1100;65149;-80
2020/12/09 03:16:23;;;;;;;47.03;29.03;;;;;;;-0.82;89.47;98593.04;125299;1098;65646;-82
2020/12/09 03:18:50;;;;;;;44.33;27.60;;;;;;;-0.85;89.65;98587.89;124860;1100;65169;-79
2020/12/09 03:21:16;;;;;;;42.67;25.80;;;;;;;-0.85;88.76;98590.52;124853;1100;65229;-80
2020/12/09 03:23:42;;;;;;;48.07;29.17;;;;;;;-0.89;89.57;98587.98;124805;1098;65198;-79
2020/12/09 03:26:09;;;;;;;43.75;27.85;;;;;;;-0.95;89.61;98588.16;125252;1098;65198;-80
2020/12/09 03:28:36;;;;;;;47.95;29.25;;;;;;;-0.98;89.07;98585.61;124819;1098;65226;-79
2020/12/09 03:31:06;;;;;;;46.43;27.87;;;;;;;-0.96;89.42;98593.42;124800;1100;65198;-80
2020/12/09 03:33:33;;;;;;;42.33;27.63;;;;;;;-0.98;89.58;98588.22;125230;1098;65294;-80
2020/12/09 03:36:00;;;;;;;41.37;27.30;;;;;;;-0.98;88.89;98587.37;125245;1098;65156;-80
2020/12/09 03:38:27;;;;;;;41.37;26.80;;;;;;;-0.99;89.22;98580.44;124795;1099;65179;-80
2020/12/09 03:40:54;;;;;;;43.75;25.95;;;;;;;-1.04;89.13;98580.55;125263;1098;65281;-80
2020/12/09 03:43:21;;;;;;;45.13;27.13;;;;;;;-1.06;89.53;98589.33;124823;1100;65193;-80
2020/12/09 03:45:47;;;;;;;43.67;26.67;;;;;;;-1.08;89.45;98588.51;125168;1098;65144;-80
2020/12/09 03:48:13;;;;;;;42.77;26.67;;;;;;;-1.09;89.68;98579.81;125180;1098;65251;-80
2020/12/09 03:50:40;;;;;;;37.27;25.07;;;;;;;-1.11;89.79;98582.48;124865;1099;65143;-81
2020/12/09 03:53:06;;;;;;;41.23;25.43;;;;;;;-1.11;89.36;98576.37;125268;1098;65261;-81
2020/12/09 03:55:32;;;;;;;46.53;27.40;;;;;;;-1.12;89.74;98569.44;125335;1098;65248;-81
2020/12/09 03:58:00;;;;;;;40.93;25.70;;;;;;;-1.14;89.32;98579.08;125289;1098;65156;-80
2020/12/09 04:00:28;;;;;;;43.30;27.00;;;;;;;-1.15;89.49;98580.84;124908;1100;65267;-81
2020/12/09 04:02:55;;;;;;;47.40;28.00;;;;;;;-1.12;89.49;98582.52;124874;1099;65133;-80
2020/12/09 04:05:22;;;;;;;40.53;27.57;;;;;;;-1.11;89.90;98581.60;124849;1100;65243;-81
2020/12/09 04:07:48;;;;;;;43.33;28.53;;;;;;;-1.09;89.85;98573.73;124953;1098;65149;-80
2020/12/09 04:10:16;;;;;;;48.43;26.37;;;;;;;-1.08;89.62;98575.44;125221;1098;65137;-80
2020/12/09 04:12:42;;;;;;;50.77;29.73;;;;;;;-1.11;89.08;98569.41;124890;1099;65179;-81
2020/12/09 04:15:10;;;;;;;46.60;30.43;;;;;;;-1.10;89.24;98572.88;124896;1100;65261;-81
2020/12/09 04:17:37;;;;;;;48.97;29.20;;;;;;;-1.08;89.85;98589.36;124857;1100;65249;-81
2020/12/09 04:20:04;;;;;;;46.95;27.80;;;;;;;-1.06;89.27;98576.26;125241;1098;65268;-81
2020/12/09 04:22:31;;;;;;;47.77;28.73;;;;;;;-1.02;89.73;98575.30;124923;1100;65288;-81
2020/12/09 04:24:57;;;;;;;55.17;35.77;;;;;;;-1.04;89.09;98574.47;125283;1098;65166;-80
2020/12/09 04:27:24;;;;;;;54.25;33.00;;;;;;;-1.06;89.57;98571.88;125223;1098;65262;-81
2020/12/09 04:29:50;;;;;;;51.53;32.83;;;;;;;-1.07;89.67;98578.02;125268;1098;65153;-80
2020/12/09 04:32:17;;;;;;;52.53;37.00;;;;;;;-1.08;88.83;98580.66;124880;1100;65191;-81
2020/12/09 04:34:43;;;;;;;53.00;33.53;;;;;;;-1.08;88.79;98575.44;124865;1100;65266;-81
2020/12/09 04:37:11;;;;;;;48.07;30.13;;;;;;;-1.04;89.11;98580.55;125282;1098;65172;-81
2020/12/09 04:39:38;;;;;;;49.47;32.40;;;;;;;-1.04;89.48;98577.94;124942;1100;65157;-81
2020/12/09 04:42:05;;;;;;;46.73;30.93;;;;;;;-1.05;89.39;98564.89;124964;1098;65194;-81
2020/12/09 04:44:31;;;;;;;45.53;28.43;;;;;;;-1.09;89.01;98564.12;124817;1098;65179;-81
2020/12/09 04:47:04;;;;;;;43.77;28.50;;;;;;;-1.15;88.80;98569.53;124811;1100;66785;-82
2020/12/09 04:49:40;;;;;;;44.95;25.55;;;;;;;-1.19;88.77;98568.73;125360;1100;65104;-80
2020/12/09 04:52:15;;;;;;;46.20;27.70;;;;;;;-1.22;88.98;98581.03;124865;1098;65137;-80
2020/12/09 04:54:45;;;;;;;46.87;26.77;;;;;;;-1.25;89.32;98576.74;125238;1098;65326;-80
2020/12/09 04:57:33;;;;;;;47.00;28.50;;;;;;;-1.26;89.17;98574.16;124933;1099;65239;-80
2020/12/09 05:00:03;;;;;;;41.80;26.23;;;;;;;-1.28;89.20;98575.98;125339;1098;65138;-80
2020/12/09 05:02:46;;;;;;;47.90;27.87;;;;;;;-1.29;89.50;98569.90;125293;1098;65530;-80
2020/12/09 05:05:17;;;;;;;42.37;26.67;;;;;;;-1.29;88.73;98559.44;125340;1098;65188;-80
2020/12/09 05:07:54;;;;;;;39.20;24.47;;;;;;;-1.29;89.25;98561.17;125329;1098;65306;-80
2020/12/09 05:10:24;;;;;;;43.93;27.83;;;;;;;-1.31;88.66;98568.22;124875;1099;65171;-80
2020/12/09 05:12:53;;;;;;;45.10;28.60;;;;;;;-1.34;89.32;98566.54;125282;1098;65246;-80
2020/12/09 05:15:21;;;;;;;40.90;27.00;;;;;;;-1.37;88.92;98572.70;124942;1098;65230;-80
2020/12/09 05:18:05;;;;;;;44.00;25.70;;;;;;;-1.39;89.08;98571.88;124905;1100;65246;-80
2020/12/09 05:20:34;;;;;;;44.67;27.97;;;;;;;-1.40;89.37;98577.98;125311;1098;65224;-80
2020/12/09 05:23:03;;;;;;;44.73;28.30;;;;;;;-1.39;89.48;98571.03;125297;1098;65203;-80
2020/12/09 05:25:30;;;;;;;49.15;30.00;;;;;;;-1.38;89.27;98560.52;124858;1100;65148;-80
2020/12/09 05:27:57;;;;;;;47.17;27.67;;;;;;;-1.36;89.23;98557.88;124880;1100;65208;-80
2020/12/09 05:30:42;;;;;;;39.05;25.10;;;;;;;-1.36;89.25;98570.94;125250;1098;65147;-80
2020/12/09 05:33:12;;;;;;;44.95;27.20;;;;;;;-1.36;89.33;98579.64;125291;1098;65237;-80
2020/12/09 05:35:39;;;;;;;50.65;29.50;;;;;;;-1.33;89.62;98578.70;125310;1099;65765;-80
2020/12/09 05:38:18;;;;;;;49.77;28.00;;;;;;;-1.29;89.49;98584.70;124862;1098;65152;-80
2020/12/09 05:40:47;;;;;;;44.33;26.60;;;;;;;-1.28;89.62;98581.20;125271;1098;65298;-80
2020/12/09 05:43:15;;;;;;;47.80;27.55;;;;;;;-1.28;88.81;98579.44;125265;1098;65140;-80
2020/12/09 05:45:43;;;;;;;46.23;28.27;;;;;;;-1.28;89.24;98587.28;125296;1100;65239;-80
2020/12/09 05:48:16;;;;;;;47.87;28.30;;;;;;;-1.28;89.56;98589.05;124914;1100;65166;-80
2020/12/09 05:50:58;;;;;;;49.00;28.07;;;;;;;-1.33;88.82;98597.00;125227;1099;65140;-80
2020/12/09 05:53:35;;;;;;;43.13;26.60;;;;;;;-1.37;89.21;98592.73;125279;1098;65150;-80
2020/12/09 05:56:13;;;;;;;47.20;25.97;;;;;;;-1.39;89.14;98602.39;124918;1100;65613;-81
2020/12/09 05:58:45;;;;;;;40.90;25.40;;;;;;;-1.40;89.20;98608.50;125325;1100;65188;-82
2020/12/09 06:01:21;;;;;;;42.57;28.20;;;;;;;-1.39;89.08;98605.00;124887;1099;65265;-82
2020/12/09 06:03:54;;;;;;;45.30;26.37;;;;;;;-1.36;89.05;98616.23;125299;1098;65127;-83
2020/12/09 06:06:23;;;;;;;44.73;27.87;;;;;;;-1.33;88.93;98610.07;124962;1099;65251;-83
2020/12/09 06:08:52;;;;;;;40.50;24.93;;;;;;;-1.28;89.21;98613.42;124935;1098;65230;-81
2020/12/09 06:11:24;;;;;;;45.77;28.67;;;;;;;-1.27;89.22;98622.13;124858;1099;65605;-81
2020/12/09 06:13:52;;;;;;;45.37;27.27;;;;;;;-1.30;88.66;98627.43;124819;1100;65140;-82
2020/12/09 06:16:20;;;;;;;44.93;26.90;;;;;;;-1.32;89.42;98627.45;124963;1098;65227;-81
2020/12/09 06:18:49;;;;;;;44.80;26.73;;;;;;;-1.32;89.38;98619.61;125280;1098;65154;-83
2020/12/09 06:21:15;;;;;;;46.87;27.43;;;;;;;-1.34;88.80;98626.66;124868;1100;65172;-81
2020/12/09 06:23:43;;;;;;;48.60;28.57;;;;;;;-1.35;89.34;98627.54;125276;1100;65076;-82
2020/12/09 06:26:10;;;;;;;45.97;27.30;;;;;;;-1.37;89.67;98627.59;125236;1098;65172;-82
2020/12/09 06:28:43;;;;;;;48.87;28.57;;;;;;;-1.38;89.57;98635.46;125161;1098;65176;-82
2020/12/09 06:31:21;;;;;;;45.53;27.73;;;;;;;-1.39;89.57;98631.99;124923;1100;65136;-82
2020/12/09 06:33:53;;;;;;;43.40;25.27;;;;;;;-1.38;89.55;98644.16;125212;1098;65182;-82
2020/12/09 06:36:22;;;;;;;40.13;24.83;;;;;;;-1.38;88.78;98640.69;124899;1099;65227;-81
2020/12/09 06:39:04;;;;;;;47.23;27.00;;;;;;;-1.39;89.55;98644.20;124877;1100;65536;-82
2020/12/09 06:41:32;;;;;;;48.30;27.83;;;;;;;-1.42;89.69;98642.53;125327;1100;65182;-82
2020/12/09 06:44:10;;;;;;;49.03;26.93;;;;;;;-1.44;89.26;98641.70;124913;1100;65105;-82
2020/12/09 06:46:48;;;;;;;42.90;26.40;;;;;;;-1.44;89.77;98630.39;124882;1098;65223;-82
2020/12/09 06:49:30;;;;;;;48.83;28.13;;;;;;;-1.43;89.76;98637.33;124983;1100;65278;-82
2020/12/09 06:51:58;;;;;;;46.40;26.35;;;;;;;-1.42;89.00;98634.69;125336;1098;65089;-81
2020/12/09 06:54:44;;;;;;;53.50;30.30;;;;;;;-1.41;89.17;98632.93;124910;1098;65172;-83
2020/12/09 06:57:17;;;;;;;50.77;30.37;;;;;;;-1.37;89.00;98647.62;124882;1100;65140;-81
2020/12/09 06:59:46;;;;;;;48.15;28.90;;;;;;;-1.34;89.60;98640.58;124894;1100;65147;-81
2020/12/09 07:02:29;;;;;;;43.80;27.47;;;;;;;-1.34;89.64;98637.97;124853;1100;65143;-81
2020/12/09 07:04:56;;;;;;;49.07;28.50;;;;;;;-1.32;89.12;98643.14;125255;1098;65191;-81
2020/12/09 07:07:29;;;;;;;51.63;29.77;;;;;;;-1.30;88.92;98648.34;125296;1098;65150;-81
2020/12/09 07:09:57;;;;;;;52.20;28.97;;;;;;;-1.28;89.30;98652.64;124892;1100;65230;-81
2020/12/09 07:12:24;;;;;;;51.93;27.07;;;;;;;-1.28;89.23;98641.33;124854;1100;65277;-81
2020/12/09 07:14:53;;;;;;;52.73;30.47;;;;;;;-1.26;89.20;98644.73;124943;1100;65134;-81
2020/12/09 07:17:26;;;;;;;56.85;30.70;;;;;;;-1.24;89.41;98646.42;125269;1098;65187;-81
2020/12/09 07:19:55;;;;;;;56.23;32.40;;;;;;;-1.23;89.13;98642.92;125269;1099;65073;-82
2020/12/09 07:22:24;;;;;;;54.30;32.53;;;;;;;-1.20;89.62;98655.92;124913;1100;65214;-81
2020/12/09 07:24:51;;;;;;;55.50;31.37;;;;;;;-1.18;89.39;98659.36;125332;1098;65227;-81
2020/12/09 07:27:20;;;;;;;50.07;28.17;;;;;;;-1.17;89.42;98658.45;125212;1099;65147;-81
2020/12/09 07:29:48;;;;;;;49.58;28.05;;;;;;;-1.19;88.99;98659.38;124881;1098;65607;-81
2020/12/09 07:32:20;;;;;;;47.23;27.53;;;;;;;-1.19;88.86;98654.16;125224;1099;65147;-81
2020/12/09 07:35:00;;;;;;;44.90;26.00;;;;;;;-1.24;89.73;98640.34;125249;1098;65240;-81
2020/12/09 07:37:31;;;;;;;44.57;26.53;;;;;;;-1.24;89.25;98646.42;124908;1099;65259;-81
2020/12/09 07:40:02;;;;;;;43.20;26.37;;;;;;;-1.21;89.00;98654.21;124875;1100;65137;-82
2020/12/09 07:42:29;;;;;;;49.27;28.07;;;;;;;-1.20;88.83;98668.14;124863;1100;65226;-82
2020/12/09 07:44:55;;;;;;;48.90;29.80;;;;;;;-1.18;89.43;98672.44;124873;1100;65312;-81
2020/12/09 07:47:27;;;;;;;46.23;29.57;;;;;;;-1.15;89.34;98684.58;125297;1098;65153;-81
2020/12/09 07:50:04;;;;;;;49.73;29.03;;;;;;;-1.10;89.24;98687.94;124985;1099;65150;-81
2020/12/09 07:52:38;;;;;;;46.93;28.63;;;;;;;-1.08;89.16;98686.11;125295;1100;65268;-81
2020/12/09 07:55:12;;;;;;;52.53;29.97;;;;;;;-1.08;89.42;98690.49;125352;1100;65156;-81
2020/12/09 07:57:40;;;;;;;52.80;31.03;;;;;;;-1.10;89.05;98690.55;124848;1100;65147;-81
2020/12/09 08:00:11;;;;;;;48.90;29.30;;;;;;;-1.10;88.78;98701.02;125354;1098;65159;-81
2020/12/09 08:02:43;;;;;;;43.57;26.73;;;;;;;-1.11;89.27;98699.27;124931;1098;65251;-81
2020/12/09 08:05:19;;;;;;;50.80;28.10;;;;;;;-1.10;89.15;98701.02;125265;1100;65275;-81
2020/12/09 08:07:52;;;;;;;46.77;28.47;;;;;;;-1.07;89.40;98695.70;125214;1098;65099;-81
2020/12/09 08:10:29;;;;;;;51.60;29.60;;;;;;;-1.07;88.69;98703.55;124841;1100;65226;-83
2020/12/09 08:13:20;;;;;;;48.87;28.87;;;;;;;-1.03;89.12;98713.02;125246;1098;65274;-80
2020/12/09 08:16:06;;;;;;;46.60;27.15;;;;;;;-1.04;89.18;98708.69;125293;1098;65156;-82
2020/12/09 08:18:34;;;;;;;53.93;32.00;;;;;;;-1.04;88.87;98711.31;125285;1098;65185;-82
2020/12/09 08:21:00;;;;;;;53.40;30.00;;;;;;;-1.00;88.53;98706.84;125367;1098;65265;-82
2020/12/09 08:23:56;;;;;;;53.10;29.23;;;;;;;-0.99;89.01;98709.44;124843;1100;65176;-82
2020/12/09 08:26:32;;;;;;;47.07;27.40;;;;;;;-0.94;89.11;98704.95;125092;1098;65073;-80
2020/12/09 08:29:02;;;;;;;50.73;31.97;;;;;;;-0.89;89.06;98715.31;124917;1100;65584;-81
2020/12/09 08:31:28;;;;;;;53.27;30.30;;;;;;;-0.83;88.39;98709.06;124818;1099;65152;-81
2020/12/09 08:33:56;;;;;;;54.95;31.45;;;;;;;-0.81;88.15;98712.50;125255;1098;65211;-81
2020/12/09 08:36:24;;;;;;;43.33;26.20;;;;;;;-0.81;87.97;98712.50;124875;1100;65242;-80
2020/12/09 08:38:52;;;;;;;49.40;28.90;;;;;;;-0.86;88.58;98717.84;124916;1100;65133;-81
2020/12/09 08:41:28;;;;;;;46.03;27.00;;;;;;;-0.91;88.35;98723.18;125315;1098;65137;-81
2020/12/09 08:43:58;;;;;;;50.23;30.27;;;;;;;-0.94;88.49;98717.18;125197;1098;65735;-81
2020/12/09 08:46:26;;;;;;;49.70;28.60;;;;;;;-0.96;87.89;98721.58;124899;1100;65134;-81
2020/12/09 08:48:54;;;;;;;46.90;27.60;;;;;;;-0.96;88.51;98717.20;125281;1098;65130;-81
2020/12/09 08:51:26;;;;;;;46.47;27.80;;;;;;;-0.92;88.78;98720.63;124991;1100;65214;-80
2020/12/09 08:53:53;;;;;;;55.57;32.67;;;;;;;-0.91;88.11;98717.95;125275;1098;65102;-80
2020/12/09 08:56:27;;;;;;;49.65;29.85;;;;;;;-0.88;88.08;98717.02;124853;1100;65295;-81
2020/12/09 08:58:53;;;;;;;54.63;30.87;;;;;;;-0.84;87.98;98709.94;125289;1098;65242;-81
2020/12/09 09:01:20;;;;;;;46.57;27.43;;;;;;;-0.79;88.09;98719.41;125265;1098;65158;-81
2020/12/09 09:03:48;;;;;;;49.17;28.23;;;;;;;-0.82;87.59;98713.37;124854;1100;65233;-81
2020/12/09 09:06:14;;;;;;;48.85;28.70;;;;;;;-0.86;88.22;98730.07;125251;1099;65152;-81
2020/12/09 09:08:41;;;;;;;52.20;28.45;;;;;;;-0.87;88.22;98717.87;124886;1098;65220;-81
2020/12/09 09:11:07;;;;;;;49.27;27.27;;;;;;;-0.91;88.09;98723.18;124854;1099;65159;-80
2020/12/09 09:13:34;;;;;;;46.90;26.70;;;;;;;-0.94;88.45;98718.03;124861;1100;65166;-81
2020/12/09 09:16:08;;;;;;;50.40;28.53;;;;;;;-0.93;88.17;98714.51;124895;1098;65144;-81
2020/12/09 09:18:35;;;;;;;47.73;28.23;;;;;;;-0.95;87.98;98707.59;124929;1100;65198;-80
2020/12/09 09:21:03;;;;;;;40.93;23.27;;;;;;;-0.96;87.92;98711.13;125324;1098;65255;-80
2020/12/09 09:23:29;;;;;;;54.20;29.77;;;;;;;-0.98;87.95;98718.99;125324;1098;65153;-81
2020/12/09 09:25:55;;;;;;;52.75;30.30;;;;;;;-0.92;88.28;98716.25;124821;1100;65139;-81
2020/12/09 09:28:22;;;;;;;46.43;27.47;;;;;;;-0.89;88.16;98717.92;125221;1098;65239;-81
2020/12/09 09:30:48;;;;;;;48.00;28.27;;;;;;;-0.86;87.68;98709.14;125274;1098;65098;-81
2020/12/09 09:33:14;;;;;;;46.53;29.23;;;;;;;-0.84;88.01;98710.83;124869;1100;65158;-81
2020/12/09 09:35:41;;;;;;;50.23;28.23;;;;;;;-0.80;88.12;98694.12;124882;1100;65236;-81
2020/12/09 09:38:07;;;;;;;49.47;28.70;;;;;;;-0.74;87.71;98693.99;124880;1098;65220;-81
2020/12/09 09:40:34;;;;;;;48.97;29.57;;;;;;;-0.73;88.22;98700.93;125306;1099;65525;-81
2020/12/09 09:43:00;;;;;;;45.23;28.33;;;;;;;-0.68;87.81;98712.14;124883;1098;65228;-81
2020/12/09 09:45:26;;;;;;;46.57;27.30;;;;;;;-0.70;87.30;98720.92;124843;1099;65198;-81
2020/12/09 09:47:53;;;;;;;51.05;30.50;;;;;;;-0.69;87.51;98717.40;125326;1098;65175;-81
2020/12/09 09:50:20;;;;;;;45.27;26.00;;;;;;;-0.69;87.58;98709.55;124867;1099;65603;-81
2020/12/09 09:52:47;;;;;;;48.75;28.95;;;;;;;-0.66;88.02;98706.84;125241;1098;65166;-81
2020/12/09 09:55:13;;;;;;;47.23;29.03;;;;;;;-0.62;87.77;98716.34;125336;1098;65591;-81
2020/12/09 09:57:40;;;;;;;46.77;26.97;;;;;;;-0.60;87.04;98717.17;124847;1100;65163;-80
2020/12/09 10:00:07;;;;;;;55.03;29.40;;;;;;;-0.62;87.65;98712.87;124889;1100;65252;-80
2020/12/09 10:02:34;;;;;;;41.50;26.93;;;;;;;-0.60;87.24;98708.47;125205;1098;65178;-80
2020/12/09 10:05:01;;;;;;;50.75;30.60;;;;;;;-0.60;87.27;98698.85;124882;1100;65275;-81
2020/12/09 10:07:27;;;;;;;49.70;28.13;;;;;;;-0.61;87.60;98701.50;124938;1100;65224;-80
2020/12/09 10:09:54;;;;;;;47.73;28.20;;;;;;;-0.64;87.27;98694.59;124854;1100;65338;-79
2020/12/09 10:12:20;;;;;;;47.50;27.37;;;;;;;-0.70;87.15;98694.76;125299;1098;65137;-80
2020/12/09 10:14:46;;;;;;;43.47;26.93;;;;;;;-0.73;87.17;98707.93;125293;1098;65224;-81
2020/12/09 10:17:13;;;;;;;50.43;29.20;;;;;;;-0.72;87.93;98702.63;125318;1098;65133;-80
2020/12/09 10:19:39;;;;;;;42.47;26.20;;;;;;;-0.70;87.25;98707.84;124892;1100;65232;-81
2020/12/09 10:22:05;;;;;;;49.77;27.27;;;;;;;-0.71;87.90;98701.75;124842;1100;65331;-81
2020/12/09 10:24:32;;;;;;;51.20;28.37;;;;;;;-0.66;87.67;98685.91;124962;1098;65152;-81
2020/12/09 10:26:58;;;;;;;47.67;28.23;;;;;;;-0.60;87.53;98700.62;124888;1100;65265;-81
2020/12/09 10:29:25;;;;;;;49.37;28.43;;;;;;;-0.56;87.61;98689.15;125332;1099;65114;-80
2020/12/09 10:31:51;;;;;;;54.60;29.67;;;;;;;-0.53;87.23;98686.45;125217;1098;65284;-81
2020/12/09 10:34:19;;;;;;;52.80;30.17;;;;;;;-0.46;87.79;98685.39;125223;1098;65157;-81
2020/12/09 10:36:49;;;;;;;53.50;30.17;;;;;;;-0.47;87.49;98686.30;124893;1098;65204;-81
2020/12/09 10:39:21;;;;;;;53.20;28.17;;;;;;;-0.45;87.07;98680.13;124902;1098;65220;-80
2020/12/09 10:41:49;;;;;;;46.60;28.05;;;;;;;-0.48;86.97;98684.56;124873;1098;65568;-83
2020/12/09 10:44:16;;;;;;;48.80;29.67;;;;;;;-0.49;87.33;98688.09;125254;1098;65186;-81
2020/12/09 10:46:43;;;;;;;51.50;29.53;;;;;;;-0.47;87.17;98689.77;124901;1098;65256;-81
2020/12/09 10:49:12;;;;;;;45.00;27.07;;;;;;;-0.50;87.30;98675.89;125312;1098;65224;-81
2020/12/09 10:51:49;;;;;;;48.63;27.60;;;;;;;-0.54;86.77;98663.80;125335;1098;65229;-81
2020/12/09 10:54:18;;;;;;;52.17;29.60;;;;;;;-0.54;87.18;98674.27;124956;1098;65251;-81
2020/12/09 10:56:45;;;;;;;47.47;27.83;;;;;;;-0.54;87.19;98676.89;125378;1098;65150;-81
2020/12/09 10:59:12;;;;;;;48.33;29.87;;;;;;;-0.55;86.86;98662.09;125224;1098;65210;-81
2020/12/09 11:01:39;;;;;;;50.23;30.47;;;;;;;-0.61;86.75;98665.71;124916;1098;65220;-82
2020/12/09 11:04:05;;;;;;;51.57;28.97;;;;;;;-0.68;86.83;98658.95;124893;1098;65237;-81
2020/12/09 11:06:34;;;;;;;54.83;30.93;;;;;;;-0.70;87.37;98660.74;124914;1100;65249;-81
2020/12/09 11:09:04;;;;;;;52.17;29.43;;;;;;;-0.70;87.30;98658.13;124872;1100;65230;-81
2020/12/09 11:11:31;;;;;;;53.03;29.90;;;;;;;-0.70;87.45;98647.66;124879;1098;65156;-81
2020/12/09 11:13:58;;;;;;;53.83;29.70;;;;;;;-0.71;86.76;98646.81;125284;1098;65172;-81
2020/12/09 11:16:26;;;;;;;51.63;29.73;;;;;;;-0.75;86.95;98647.78;124860;1098;65251;-81